Time;durP1;ratioP1;P1;durP2;ratioP2;P2;SDS_P1;SDS_P2;PMS_P1;PMS_P2;Temp;Humidity;BMP_temperature;BMP_pressure;BME280_temperature;BME280_humidity;BME280_pressure;Samples;Min_cycle;Max_cycle;Signal;HPM_P1;HPM_P2
2022/12/27 00:00:06;;;;;;;44.85;18.38;;;;;;;1.67;100.00;97688.50;5003030;28;20054;-57
2022/12/27 00:02:35;;;;;;;42.97;20.23;;;;;;;2.12;100.00;97743.19;5002881;28;20046;-57
2022/12/27 00:05:03;;;;;;;34.83;14.10;;;;;;;2.00;100.00;97742.84;5002890;28;20132;-56
2022/12/27 00:07:30;;;;;;;33.35;13.07;;;;;;;1.97;100.00;97742.63;5003078;28;20054;-57
2022/12/27 00:09:57;;;;;;;37.15;16.63;;;;;;;1.80;100.00;97720.53;5002827;28;20111;-57
2022/12/27 00:12:24;;;;;;;19.00;9.65;;;;;;;1.10;100.00;97614.06;5002649;28;20053;-56
2022/12/27 00:14:51;;;;;;;16.70;8.90;;;;;;;1.85;100.00;97723.19;5002579;28;20532;-55
2022/12/27 00:17:17;;;;;;;18.83;9.63;;;;;;;1.96;100.00;97746.47;5002672;28;20069;-55
2022/12/27 00:19:44;;;;;;;34.70;17.70;;;;;;;1.94;100.00;97735.03;5002475;28;20042;-57
2022/12/27 00:22:11;;;;;;;28.35;14.35;;;;;;;2.03;100.00;97735.97;5002894;28;20536;-56
2022/12/27 00:24:37;;;;;;;24.80;13.20;;;;;;;1.68;100.00;97668.28;5001646;28;20320;-56
2022/12/27 00:27:04;;;;;;;28.63;15.57;;;;;;;2.03;100.00;97741.44;5002642;28;20608;-55
2022/12/27 00:29:30;;;;;;;28.17;15.05;;;;;;;2.08;100.00;97738.63;5002739;28;20058;-57
2022/12/27 00:31:57;;;;;;;34.38;17.98;;;;;;;1.27;100.00;97619.81;5002678;28;20953;-56
2022/12/27 00:34:24;;;;;;;64.35;27.65;;;;;;;1.90;100.00;97725.81;5001301;28;20073;-57
2022/12/27 00:36:50;;;;;;;94.15;36.05;;;;;;;1.68;100.00;97665.53;5004516;28;20056;-56
2022/12/27 00:39:17;;;;;;;24.75;11.23;;;;;;;2.12;100.00;97739.66;5006258;28;20062;-58
2022/12/27 00:41:44;;;;;;;33.80;16.58;;;;;;;2.01;100.00;97727.28;5009015;28;20168;-56
2022/12/27 00:44:10;;;;;;;18.15;9.55;;;;;;;2.21;100.00;97732.38;5026538;28;20485;-57
2022/12/27 00:46:37;;;;;;;32.60;15.40;;;;;;;1.11;100.00;97610.22;5024859;28;20156;-57
2022/12/27 00:49:03;;;;;;;27.30;13.55;;;;;;;1.78;100.00;97733.66;5025920;28;20587;-56
2022/12/27 00:51:30;;;;;;;41.70;17.95;;;;;;;1.82;100.00;97753.81;5023993;28;20058;-55
2022/12/27 00:53:57;;;;;;;35.38;14.88;;;;;;;1.73;100.00;97741.91;5025311;28;20114;-58
2022/12/27 00:56:26;;;;;;;28.77;14.25;;;;;;;1.75;100.00;97750.63;5025816;28;20065;-56
2022/12/27 00:58:55;;;;;;;39.38;14.43;;;;;;;1.73;100.00;97740.00;5020344;28;20136;-56
2022/12/27 01:01:24;;;;;;;36.70;15.70;;;;;;;1.21;100.00;97659.19;5005519;28;20104;-57
2022/12/27 01:03:52;;;;;;;32.22;14.75;;;;;;;1.86;100.00;97731.06;5006373;28;20053;-58
2022/12/27 01:06:21;;;;;;;26.08;12.35;;;;;;;1.95;100.00;97728.44;5006615;28;21022;-57
2022/12/27 01:08:48;;;;;;;27.20;13.32;;;;;;;1.94;100.00;97729.56;5004187;28;20054;-57
2022/12/27 01:11:16;;;;;;;49.67;21.00;;;;;;;1.95;100.00;97728.44;5005914;28;20558;-56
2022/12/27 01:13:44;;;;;;;30.67;14.93;;;;;;;2.00;100.00;97729.19;5005518;28;20050;-57
2022/12/27 01:16:13;;;;;;;32.75;17.40;;;;;;;2.03;100.00;97744.16;5009742;28;20523;-55
2022/12/27 01:18:40;;;;;;;35.03;13.90;;;;;;;2.05;100.00;97731.03;5025513;28;20057;-57
2022/12/27 01:21:08;;;;;;;26.42;13.90;;;;;;;1.96;100.00;97708.25;5023363;28;20512;-57
2022/12/27 01:23:35;;;;;;;37.08;17.45;;;;;;;2.06;100.00;97714.34;5014510;28;20535;-56
2022/12/27 01:26:05;;;;;;;45.08;20.27;;;;;;;2.03;100.00;97701.28;5005459;28;20089;-56
2022/12/27 01:28:33;;;;;;;44.67;19.75;;;;;;;2.10;100.00;97703.63;5005535;28;20050;-59
2022/12/27 01:31:04;;;;;;;46.17;19.83;;;;;;;2.12;100.00;97706.88;5004329;28;20060;-56
2022/12/27 01:33:31;;;;;;;35.38;17.65;;;;;;;2.10;100.00;97698.97;5024882;28;20092;-57
2022/12/27 01:36:10;;;;;;;36.05;15.25;;;;;;;2.20;100.00;97697.97;5023078;28;20123;-56
2022/12/27 01:38:37;;;;;;;35.38;16.40;;;;;;;2.12;100.00;97701.41;5025352;28;20057;-56
2022/12/27 01:42:50;;;;;;;33.38;14.85;;;;;;;1.48;100.00;97610.19;5024895;28;20085;-56
2022/12/27 01:43:50;;;;;;;32.30;14.77;;;;;;;2.00;100.00;97671.00;5025121;28;20049;-57
2022/12/27 01:46:17;;;;;;;23.77;12.48;;;;;;;2.14;100.00;97677.31;5011289;28;20049;-57
2022/12/27 01:48:44;;;;;;;21.60;9.85;;;;;;;1.62;100.00;97621.16;5004700;28;20382;-57
2022/12/27 01:51:11;;;;;;;23.20;10.20;;;;;;;2.16;100.00;97680.56;5005239;28;20468;-56
2022/12/27 01:53:41;;;;;;;20.70;10.73;;;;;;;2.20;100.00;97676.09;5004624;28;20046;-57
2022/12/27 01:56:26;;;;;;;20.13;10.02;;;;;;;2.10;100.00;97671.66;5005057;28;20114;-56
2022/12/27 01:59:06;;;;;;;22.63;9.43;;;;;;;1.95;100.00;97654.69;5004950;28;20077;-56
2022/12/27 02:01:38;;;;;;;36.35;14.43;;;;;;;2.06;100.00;97687.00;5015606;28;20500;-55
2022/12/27 02:04:11;;;;;;;46.13;21.67;;;;;;;2.00;100.00;97687.41;5024324;28;20816;-56
2022/12/27 02:06:39;;;;;;;39.83;19.42;;;;;;;2.05;100.00;97679.13;5024600;28;20054;-55
2022/12/27 02:09:41;;;;;;;48.13;19.83;;;;;;;2.01;100.00;97686.31;5023982;28;20053;-58
2022/12/27 02:12:08;;;;;;;46.45;21.63;;;;;;;1.87;100.00;97666.31;5016076;28;20050;-56
2022/12/27 02:14:43;;;;;;;42.90;18.83;;;;;;;2.04;100.00;97672.03;5004789;28;20053;-56
2022/12/27 02:17:26;;;;;;;34.88;13.57;;;;;;;2.07;100.00;97674.16;5004586;28;20085;-58
2022/12/27 02:19:59;;;;;;;27.60;14.55;;;;;;;2.05;100.00;97676.38;5004733;28;20100;-57
2022/12/27 02:26:03;;;;;;;34.65;15.98;;;;;;;1.93;100.00;97670.59;5004388;28;20352;-58
2022/12/27 02:28:52;;;;;;;39.38;13.82;;;;;;;1.83;100.00;97627.06;5004344;28;20512;-57
2022/12/27 02:31:40;;;;;;;25.92;11.82;;;;;;;1.52;100.00;97573.00;5004341;28;20107;-57
2022/12/27 02:34:15;;;;;;;26.30;10.35;;;;;;;2.00;100.00;97654.63;5002800;28;20464;-58
2022/12/27 02:36:44;;;;;;;27.30;10.63;;;;;;;1.94;100.00;97629.31;5003709;28;20054;-57
2022/12/27 02:39:14;;;;;;;18.65;8.80;;;;;;;2.08;100.00;97653.91;5005169;28;20068;-57
2022/12/27 02:53:22;;;;;;;21.88;10.25;;;;;;;1.78;100.00;97659.91;5004198;28;20057;-58
2022/12/27 02:59:09;;;;;;;29.02;12.52;;;;;;;1.56;100.00;97655.88;5003215;28;20088;-58
2022/12/27 03:05:18;;;;;;;24.85;10.05;;;;;;;1.50;100.00;97645.38;5004540;28;20593;-57
2022/12/27 03:07:54;;;;;;;21.58;10.02;;;;;;;1.58;100.00;97650.94;5003925;28;20535;-57
2022/12/27 03:16:36;;;;;;;26.83;12.30;;;;;;;1.56;100.00;97644.97;5003387;28;20064;-58
2022/12/27 03:27:44;;;;;;;30.45;14.25;;;;;;;1.69;100.00;97637.16;5023285;28;20131;-56
2022/12/27 03:33:14;;;;;;;88.90;34.63;;;;;;;1.63;100.00;97638.34;5003082;28;20539;-56
2022/12/27 03:38:01;;;;;;;41.10;19.02;;;;;;;0.83;100.00;97499.41;5002971;28;20141;-58
2022/12/27 03:38:42;;;;;;;25.60;10.70;;;;;;;1.63;100.00;97643.81;5003210;28;20567;-56
2022/12/27 03:43:58;;;;;;;19.45;9.43;;;;;;;1.20;100.00;97597.53;5003255;28;20093;-58
2022/12/27 03:46:32;;;;;;;43.58;18.58;;;;;;;1.49;100.00;97636.38;5002912;28;20524;-57
2022/12/27 03:49:18;;;;;;;34.65;16.83;;;;;;;1.52;100.00;97633.03;5003237;28;20054;-56
2022/12/27 03:51:51;;;;;;;34.17;13.30;;;;;;;1.52;100.00;97619.41;5002614;28;20112;-56
2022/12/27 03:54:25;;;;;;;34.58;12.00;;;;;;;1.66;100.00;97632.28;5003130;28;20065;-56
2022/12/27 03:56:58;;;;;;;23.17;9.25;;;;;;;1.64;100.00;97623.56;5002689;28;20575;-56
2022/12/27 03:59:25;;;;;;;19.65;8.55;;;;;;;1.67;100.00;97626.53;5002971;28;20167;-57
2022/12/27 04:01:52;;;;;;;18.70;10.20;;;;;;;1.76;100.00;97643.00;5002538;28;20538;-56
2022/12/27 04:04:19;;;;;;;28.40;14.48;;;;;;;1.43;100.00;97574.78;5022560;28;20065;-56
2022/12/27 04:06:45;;;;;;;117.65;43.28;;;;;;;1.72;100.00;97637.38;5022560;28;20056;-56
2022/12/27 04:36:46;;;;;;;27.20;14.73;;;;;;;1.65;100.00;97641.56;5005761;28;20069;-57
2022/12/27 04:39:13;;;;;;;27.80;13.05;;;;;;;1.63;100.00;97633.69;5006294;28;20089;-58
2022/12/27 04:55:33;;;;;;;51.35;22.58;;;;;;;1.52;100.00;97659.50;4986331;28;20054;-58
2022/12/27 04:57:59;;;;;;;51.75;22.48;;;;;;;1.11;100.00;97582.94;4986379;28;20112;-58
2022/12/27 05:03:18;;;;;;;80.55;31.90;;;;;;;1.61;100.00;97629.63;4986532;28;20058;-55
2022/12/27 05:05:47;;;;;;;29.27;14.07;;;;;;;1.46;100.00;97589.75;4986527;28;20054;-55
2022/12/27 05:14:01;;;;;;;26.13;13.13;;;;;;;0.98;100.00;97621.88;5005790;28;20092;-56
2022/12/27 05:16:34;;;;;;;22.40;12.82;;;;;;;0.88;100.00;97588.50;5005645;28;20069;-55
2022/12/27 05:19:01;;;;;;;36.40;16.45;;;;;;;1.01;100.00;97598.66;5005698;28;20138;-56
2022/12/27 05:21:28;;;;;;;20.13;12.18;;;;;;;1.04;100.00;97642.50;5004708;28;20050;-56
2022/12/27 05:26:39;;;;;;;45.28;22.40;;;;;;;0.78;100.00;97551.28;5005310;28;20487;-56
2022/12/27 05:29:07;;;;;;;53.78;26.00;;;;;;;1.28;100.00;97626.88;5005451;28;20500;-58
2022/12/27 05:31:34;;;;;;;56.90;25.55;;;;;;;0.96;100.00;97635.00;5005420;28;20264;-57
2022/12/27 05:34:01;;;;;;;35.85;15.38;;;;;;;0.73;100.00;97624.94;5005253;28;20065;-57
2022/12/27 05:36:27;;;;;;;32.78;15.65;;;;;;;0.06;100.00;97520.94;5005282;28;20915;-58
2022/12/27 05:38:54;;;;;;;54.90;21.67;;;;;;;1.00;100.00;97636.03;5004871;28;20121;-56
2022/12/27 05:41:20;;;;;;;63.55;30.90;;;;;;;1.08;100.00;97654.47;5004772;28;20085;-57
2022/12/27 05:43:47;;;;;;;83.00;35.47;;;;;;;0.40;100.00;97514.22;5004492;28;20062;-56
2022/12/27 05:46:17;;;;;;;59.97;27.35;;;;;;;0.64;100.00;97555.03;5005454;28;20112;-56
2022/12/27 05:48:44;;;;;;;65.53;30.58;;;;;;;1.31;100.00;97637.19;5004906;28;20136;-55
2022/12/27 05:51:14;;;;;;;47.85;23.83;;;;;;;1.30;100.00;97645.69;5003904;28;20058;-55
2022/12/27 05:53:41;;;;;;;57.97;26.80;;;;;;;0.88;100.00;97550.31;5003586;28;20046;-55
2022/12/27 05:56:10;;;;;;;58.60;28.15;;;;;;;1.52;100.00;97665.78;5004342;28;20284;-56
2022/12/27 05:58:37;;;;;;;62.03;27.70;;;;;;;1.32;100.00;97641.56;5003121;28;20053;-57
2022/12/27 06:01:08;;;;;;;60.03;27.45;;;;;;;1.13;100.00;97597.13;5004025;28;20050;-56
2022/12/27 06:03:35;;;;;;;107.75;51.85;;;;;;;1.48;100.00;97664.78;5003503;28;20135;-55
2022/12/27 06:06:03;;;;;;;64.55;32.90;;;;;;;1.46;100.00;97650.63;5004959;28;20050;-55
2022/12/27 06:08:30;;;;;;;417.30;188.60;;;;;;;1.68;100.00;97657.34;5004387;28;20049;-56
2022/12/27 06:11:08;;;;;;;221.10;104.47;;;;;;;1.82;100.00;97664.47;5004136;28;20184;-55
2022/12/27 06:13:35;;;;;;;60.33;29.00;;;;;;;1.28;100.00;97599.59;4996740;28;20148;-56
2022/12/27 06:16:05;;;;;;;68.15;30.40;;;;;;;1.76;100.00;97637.56;4984653;28;20058;-56
2022/12/27 06:18:34;;;;;;;36.28;15.63;;;;;;;1.33;100.00;97667.72;4984704;28;20517;-57
2022/12/27 06:21:05;;;;;;;33.67;15.13;;;;;;;1.73;100.00;97643.63;5002940;28;20053;-58
2022/12/27 06:23:33;;;;;;;40.55;20.38;;;;;;;1.24;100.00;97527.63;5004541;28;20054;-57
2022/12/27 06:26:04;;;;;;;47.67;21.52;;;;;;;2.08;100.00;97623.88;5004057;28;20071;-58
2022/12/27 06:28:32;;;;;;;51.53;24.15;;;;;;;1.55;100.00;97528.72;5003862;28;20627;-55
2022/12/27 06:30:59;;;;;;;55.25;26.67;;;;;;;2.43;100.00;97636.84;5004448;28;20061;-55
2022/12/27 06:33:26;;;;;;;56.67;25.65;;;;;;;2.66;100.00;97644.84;5002932;28;20149;-56
2022/12/27 06:35:52;;;;;;;41.17;20.38;;;;;;;2.80;100.00;97645.66;5003529;28;20057;-56
2022/12/27 06:38:19;;;;;;;36.42;16.90;;;;;;;2.82;100.00;97648.91;5003532;28;20057;-59
2022/12/27 06:40:46;;;;;;;44.85;19.83;;;;;;;2.87;100.00;97647.97;5002661;28;20054;-59
2022/12/27 06:43:12;;;;;;;45.53;23.08;;;;;;;3.03;100.00;97661.00;5002820;28;20531;-57
2022/12/27 06:45:39;;;;;;;42.35;19.95;;;;;;;2.93;100.00;97616.66;5002504;28;20089;-57
2022/12/27 06:48:06;;;;;;;41.53;16.08;;;;;;;3.23;99.03;97667.97;4991694;28;20443;-58
2022/12/27 06:50:32;;;;;;;42.60;18.90;;;;;;;3.17;97.43;97651.97;4984039;28;20050;-56
2022/12/27 06:52:59;;;;;;;51.35;24.60;;;;;;;3.31;97.96;97647.25;4982377;28;20058;-56
2022/12/27 06:55:26;;;;;;;53.70;22.10;;;;;;;3.53;94.86;97642.63;4984060;28;20057;-57
2022/12/27 06:57:52;;;;;;;52.88;25.27;;;;;;;3.45;96.14;97615.97;5003889;28;20077;-55
2022/12/27 07:00:19;;;;;;;64.72;28.55;;;;;;;3.87;97.46;97645.59;5002907;28;20554;-56
2022/12/27 07:02:46;;;;;;;40.75;20.33;;;;;;;3.80;96.40;97677.31;5003716;28;20363;-56
2022/12/27 07:05:13;;;;;;;47.42;23.48;;;;;;;3.54;93.69;97542.91;4998958;28;20045;-58
2022/12/27 07:07:40;;;;;;;73.28;33.40;;;;;;;4.25;93.46;97635.81;4996257;28;20054;-57
2022/12/27 07:10:07;;;;;;;70.63;30.27;;;;;;;4.34;91.83;97641.34;5000106;28;20057;-59
2022/12/27 07:12:33;;;;;;;60.17;29.40;;;;;;;4.12;91.80;97590.13;4998039;28;20045;-57
2022/12/27 07:15:05;;;;;;;71.03;35.00;;;;;;;4.53;92.02;97631.78;5000061;28;20710;-57
2022/12/27 07:17:33;;;;;;;85.00;38.03;;;;;;;3.63;91.94;97568.44;4983312;28;20484;-60
2022/12/27 07:20:02;;;;;;;72.68;32.75;;;;;;;2.28;93.00;97309.19;4987485;28;20057;-60
2022/12/27 07:22:28;;;;;;;69.97;36.60;;;;;;;4.54;94.02;97605.13;4990503;28;20108;-55
2022/12/27 07:24:55;;;;;;;72.78;37.33;;;;;;;3.93;91.77;97485.44;4990490;28;20055;-57
2022/12/27 07:27:22;;;;;;;75.45;39.80;;;;;;;4.95;92.25;97613.00;4983101;28;20110;-55
2022/12/27 07:29:49;;;;;;;77.57;38.50;;;;;;;4.50;90.93;97576.72;4984005;28;20149;-54
2022/12/27 07:32:15;;;;;;;76.90;40.22;;;;;;;5.33;90.84;97638.72;4982604;28;20243;-54
2022/12/27 07:34:42;;;;;;;74.32;40.47;;;;;;;5.45;89.61;97615.00;4981877;28;20528;-57
2022/12/27 07:37:09;;;;;;;85.40;45.05;;;;;;;5.81;90.59;97628.38;4983805;28;20094;-54
2022/12/27 07:39:35;;;;;;;81.32;41.83;;;;;;;5.98;88.96;97628.38;4983154;28;20137;-55
2022/12/27 07:42:02;;;;;;;70.13;38.53;;;;;;;6.31;87.51;97615.66;4981084;28;20058;-56
2022/12/27 07:44:34;;;;;;;84.93;46.13;;;;;;;6.72;86.57;97618.56;4982433;28;20408;-60
2022/12/27 07:47:00;;;;;;;119.35;55.05;;;;;;;7.16;85.50;97620.75;4982990;28;20545;-58
2022/12/27 07:49:27;;;;;;;243.07;116.72;;;;;;;7.10;83.92;97578.00;4983019;28;20054;-61
2022/12/27 07:51:54;;;;;;;110.03;57.75;;;;;;;7.08;80.99;97536.22;4989434;28;20500;-55
2022/12/27 07:54:21;;;;;;;73.25;38.70;;;;;;;7.79;81.50;97591.22;4992855;28;20400;-58
2022/12/27 07:56:47;;;;;;;58.10;31.92;;;;;;;8.35;80.61;97612.56;4989620;28;20054;-55
2022/12/27 07:59:14;;;;;;;124.30;61.95;;;;;;;8.53;78.52;97602.94;5001154;28;20149;-54
2022/12/27 08:04:26;;;;;;;81.93;43.40;;;;;;;9.24;76.90;97590.28;4995754;28;20064;-54
2022/12/27 08:06:59;;;;;;;68.40;37.72;;;;;;;9.23;73.53;97555.50;4999689;28;20152;-58
2022/12/27 08:09:30;;;;;;;59.70;34.20;;;;;;;9.48;72.66;97606.00;4981705;28;20058;-59
2022/12/27 08:11:56;;;;;;;59.17;31.75;;;;;;;9.76;72.54;97607.66;4983022;28;20409;-59
2022/12/27 08:14:23;;;;;;;53.03;30.27;;;;;;;9.28;72.56;97485.34;4991978;28;20081;-63
2022/12/27 08:16:50;;;;;;;59.38;35.22;;;;;;;9.85;71.57;97565.97;5002049;28;20049;-61
2022/12/27 08:19:16;;;;;;;33.53;20.13;;;;;;;9.50;72.22;97601.72;4997568;28;20074;-59
2022/12/27 08:21:43;;;;;;;31.45;17.90;;;;;;;9.73;71.44;97600.06;4994923;28;20054;-57
2022/12/27 08:24:10;;;;;;;27.00;16.15;;;;;;;9.69;72.43;97601.91;4990343;28;20046;-63
2022/12/27 08:26:36;;;;;;;22.20;14.20;;;;;;;9.88;73.18;97582.69;4985440;28;20056;-55
2022/12/27 08:29:03;;;;;;;24.92;15.32;;;;;;;9.99;73.31;97533.97;4999749;28;20050;-57
2022/12/27 08:31:29;;;;;;;13.32;8.20;;;;;;;10.45;69.50;97590.59;5001911;28;20085;-56
2022/12/27 08:33:56;;;;;;;21.30;11.90;;;;;;;10.39;68.24;97603.09;4987822;28;20050;-55
2022/12/27 08:36:24;;;;;;;17.02;10.85;;;;;;;10.53;69.89;97582.13;4982483;28;20137;-57
2022/12/27 08:39:11;;;;;;;18.45;11.60;;;;;;;11.03;69.51;97588.91;4992651;28;20076;-57
2022/12/27 08:41:38;;;;;;;15.52;9.43;;;;;;;11.14;66.47;97606.59;5001679;28;20061;-58
2022/12/27 08:44:05;;;;;;;19.83;10.32;;;;;;;11.30;66.16;97593.50;4990896;28;20477;-56
2022/12/27 08:46:31;;;;;;;19.30;11.80;;;;;;;10.92;66.04;97488.06;4994749;28;20155;-63
2022/12/27 08:48:58;;;;;;;20.45;11.52;;;;;;;11.81;65.12;97595.03;5001470;28;20530;-54
2022/12/27 08:51:25;;;;;;;21.73;12.10;;;;;;;11.82;64.41;97544.72;4999758;28;20054;-59
2022/12/27 08:54:06;;;;;;;19.63;11.77;;;;;;;12.39;63.23;97585.50;4997977;28;20465;-57
2022/12/27 08:56:32;;;;;;;38.90;22.63;;;;;;;12.66;63.01;97584.41;4999287;28;20046;-60
2022/12/27 08:58:59;;;;;;;17.55;12.15;;;;;;;12.79;60.28;97577.47;4991466;28;20078;-58
2022/12/27 09:01:26;;;;;;;17.20;10.57;;;;;;;12.98;59.32;97579.38;4988340;28;20042;-59
2022/12/27 09:03:53;;;;;;;16.92;9.85;;;;;;;12.60;59.96;97508.06;4991733;28;20089;-59
2022/12/27 09:06:21;;;;;;;18.23;10.30;;;;;;;13.12;59.99;97563.75;5003928;28;20045;-58
2022/12/27 09:08:50;;;;;;;66.15;36.47;;;;;;;13.34;62.01;97554.53;5001220;28;20570;-56
2022/12/27 09:11:20;;;;;;;59.55;32.85;;;;;;;13.60;62.08;97546.16;4985425;28;20076;-60
2022/12/27 09:13:47;;;;;;;14.00;10.48;;;;;;;13.06;60.31;97465.13;4985425;28;20140;-57
2022/12/27 09:16:17;;;;;;;23.80;14.20;;;;;;;13.23;60.91;97548.00;4999193;28;20304;-57
2022/12/27 09:18:46;;;;;;;72.95;48.70;;;;;;;13.58;61.41;97548.50;5005449;28;20049;-57
2022/12/27 09:21:15;;;;;;;21.08;12.52;;;;;;;12.76;59.23;97425.31;5002870;28;20480;-57
2022/12/27 09:23:43;;;;;;;21.30;13.43;;;;;;;13.41;60.23;97499.00;4994147;28;20058;-57
2022/12/27 09:26:20;;;;;;;30.98;17.20;;;;;;;14.05;59.45;97525.63;4985136;28;20540;-57
2022/12/27 09:28:47;;;;;;;26.77;18.00;;;;;;;14.33;58.69;97533.50;5004512;28;20057;-56
2022/12/27 09:31:16;;;;;;;31.45;22.88;;;;;;;14.62;58.64;97513.09;4987640;28;20050;-57
2022/12/27 09:33:43;;;;;;;24.80;15.02;;;;;;;14.71;55.43;97503.22;4992656;28;20046;-57
2022/12/27 09:36:12;;;;;;;24.55;15.25;;;;;;;14.69;56.13;97558.56;4997273;28;20054;-57
2022/12/27 09:38:40;;;;;;;34.30;24.25;;;;;;;14.77;56.11;97498.88;4994350;28;20137;-57
2022/12/27 09:41:21;;;;;;;21.00;14.40;;;;;;;14.93;55.99;97501.38;5002697;28;20057;-57
2022/12/27 09:44:23;;;;;;;34.95;24.23;;;;;;;15.08;55.81;97480.75;5004916;28;21000;-57
2022/12/27 09:47:07;;;;;;;19.02;12.82;;;;;;;15.33;54.48;97486.50;4999886;28;20480;-60
2022/12/27 09:50:15;;;;;;;18.88;13.10;;;;;;;15.34;54.90;97488.91;4999262;28;20050;-62
2022/12/27 09:52:54;;;;;;;34.42;20.60;;;;;;;15.42;54.79;97476.59;5001158;28;20050;-56
2022/12/27 09:55:27;;;;;;;28.40;18.35;;;;;;;15.49;54.25;97479.41;4986053;28;20081;-57
2022/12/27 09:58:02;;;;;;;38.63;27.40;;;;;;;15.50;54.06;97450.31;4993564;28;20047;-63
2022/12/27 10:00:28;;;;;;;27.42;18.65;;;;;;;15.48;53.95;97433.16;4984593;28;20521;-59
2022/12/27 10:03:05;;;;;;;30.60;20.65;;;;;;;15.86;53.10;97471.59;4984124;28;20046;-56
2022/12/27 10:05:35;;;;;;;19.42;12.98;;;;;;;15.65;53.13;97477.09;4995493;28;20056;-58
2022/12/27 10:08:26;;;;;;;21.80;13.85;;;;;;;15.93;52.20;97474.41;4999409;28;20061;-56
2022/12/27 10:11:34;;;;;;;18.75;11.93;;;;;;;15.71;53.13;97469.16;5003732;28;20045;-61
2022/12/27 10:14:00;;;;;;;14.18;9.57;;;;;;;15.56;53.31;97437.56;4999884;28;20116;-59
2022/12/27 10:16:53;;;;;;;18.05;7.93;;;;;;;15.31;54.15;97472.94;4993476;28;20610;-58
2022/12/27 10:19:22;;;;;;;9.68;7.20;;;;;;;15.27;54.61;97460.94;4993540;28;20105;-67
2022/12/27 10:22:02;;;;;;;13.45;7.15;;;;;;;15.29;54.40;97458.56;4984805;28;20054;-57
2022/12/27 10:24:44;;;;;;;9.18;6.25;;;;;;;14.44;54.40;97367.16;4984780;28;20058;-61
2022/12/27 10:27:19;;;;;;;7.97;5.90;;;;;;;14.79;55.66;97460.25;4985172;28;20570;-60
2022/12/27 10:29:47;;;;;;;11.55;6.78;;;;;;;14.58;56.22;97400.72;4984342;28;20054;-60
2022/12/27 10:32:15;;;;;;;8.68;6.05;;;;;;;15.17;55.87;97458.91;5003377;28;20086;-57
2022/12/27 10:34:42;;;;;;;22.73;9.55;;;;;;;15.13;55.82;97441.31;4984954;28;20158;-65
2022/12/27 10:37:15;;;;;;;15.15;7.28;;;;;;;14.72;56.41;97443.44;4997321;28;20077;-62
2022/12/27 10:39:42;;;;;;;12.10;6.57;;;;;;;14.56;56.72;97415.06;5001499;28;20484;-64
2022/12/27 10:42:28;;;;;;;28.15;13.27;;;;;;;14.85;56.86;97421.63;4994484;28;20054;-58
2022/12/27 10:45:27;;;;;;;24.25;10.93;;;;;;;15.17;56.28;97439.38;4997042;28;20566;-55
2022/12/27 10:48:09;;;;;;;12.50;6.78;;;;;;;14.81;56.85;97438.34;5003342;28;20062;-72
2022/12/27 10:50:36;;;;;;;9.57;6.13;;;;;;;13.96;57.90;97307.88;5003370;28;20068;-56
2022/12/27 10:53:03;;;;;;;11.00;6.68;;;;;;;14.45;58.35;97391.06;5003613;28;20739;-66
2022/12/27 10:55:36;;;;;;;22.88;9.27;;;;;;;14.81;58.49;97429.19;5003927;28;20056;-65
2022/12/27 10:58:25;;;;;;;8.95;5.82;;;;;;;14.56;58.38;97430.97;5001294;28;20057;-64
2022/12/27 11:00:54;;;;;;;12.75;9.35;;;;;;;14.59;58.50;97424.66;5001128;28;20053;-55
2022/12/27 11:03:21;;;;;;;11.10;7.55;;;;;;;14.70;58.04;97419.94;4995832;28;20154;-61
2022/12/27 11:06:03;;;;;;;15.60;8.43;;;;;;;14.80;58.98;97424.78;5001863;28;20050;-68
2022/12/27 11:08:30;;;;;;;33.83;13.52;;;;;;;15.07;58.06;97406.59;4998332;28;20057;-71
2022/12/27 11:11:20;;;;;;;50.28;21.45;;;;;;;15.23;57.28;97415.47;4997785;28;20085;-58
2022/12/27 11:13:47;;;;;;;8.98;6.30;;;;;;;15.20;56.43;97421.84;4993265;28;20088;-63
2022/12/27 11:16:33;;;;;;;17.52;8.68;;;;;;;15.38;57.61;97417.16;5002773;28;20057;-56
2022/12/27 11:19:02;;;;;;;13.20;8.25;;;;;;;15.15;56.67;97388.72;5001135;28;20508;-63
2022/12/27 11:21:30;;;;;;;25.45;13.00;;;;;;;15.39;57.33;97385.25;5002470;28;20049;-55
2022/12/27 11:24:00;;;;;;;40.22;22.13;;;;;;;15.51;56.92;97382.09;5002764;28;20602;-63
2022/12/27 11:26:32;;;;;;;37.83;15.48;;;;;;;15.72;57.08;97409.28;5001342;28;20053;-63
2022/12/27 11:29:00;;;;;;;20.63;11.65;;;;;;;15.85;55.94;97408.53;5002251;28;20551;-63
2022/12/27 11:31:37;;;;;;;17.05;10.20;;;;;;;15.80;56.40;97389.38;5002682;28;20096;-64
2022/12/27 11:34:16;;;;;;;23.92;13.75;;;;;;;16.00;55.80;97396.19;5001030;28;20902;-56
2022/12/27 11:36:49;;;;;;;25.42;13.30;;;;;;;16.22;53.59;97395.00;4999166;28;20135;-64
2022/12/27 11:39:36;;;;;;;13.43;8.52;;;;;;;16.59;51.65;97391.84;4990130;28;20057;-54
2022/12/27 11:42:07;;;;;;;5.82;4.40;;;;;;;16.69;50.28;97409.81;4981027;28;20173;-54
2022/12/27 11:44:39;;;;;;;8.80;4.85;;;;;;;16.76;49.39;97390.22;4983026;28;20081;-55
2022/12/27 11:47:48;;;;;;;10.73;6.70;;;;;;;16.79;49.84;97387.41;4981186;28;20081;-62
2022/12/27 11:50:30;;;;;;;6.18;4.43;;;;;;;16.67;49.52;97389.84;4978796;28;20058;-61
2022/12/27 11:53:26;;;;;;;5.93;4.28;;;;;;;16.36;48.88;97327.91;4992905;28;20042;-63
2022/12/27 11:56:12;;;;;;;7.78;5.45;;;;;;;16.87;48.32;97385.38;5002336;28;20112;-55
2022/12/27 11:59:30;;;;;;;11.75;6.50;;;;;;;16.94;48.60;97385.38;5002590;28;20153;-63
2022/12/27 12:02:22;;;;;;;9.90;6.07;;;;;;;16.60;48.68;97343.09;4998920;28;20108;-56
2022/12/27 12:04:55;;;;;;;7.60;5.68;;;;;;;16.86;48.61;97373.41;5002722;28;20488;-65
2022/12/27 12:08:03;;;;;;;9.25;5.93;;;;;;;16.90;48.44;97377.00;5001985;28;20058;-55
2022/12/27 12:10:51;;;;;;;7.95;5.75;;;;;;;16.88;48.34;97382.22;5001695;28;20447;-63
2022/12/27 12:13:57;;;;;;;9.52;5.88;;;;;;;16.91;48.47;97430.97;4982432;28;20433;-62
2022/12/27 12:16:42;;;;;;;10.30;5.72;;;;;;;16.78;48.49;97371.84;4980025;28;20141;-63
2022/12/27 12:19:47;;;;;;;5.80;4.13;;;;;;;16.96;47.63;97366.97;4979958;28;20053;-64
2022/12/27 12:22:17;;;;;;;15.15;7.38;;;;;;;17.24;47.79;97377.28;4940012;28;20120;-63
2022/12/27 12:25:05;;;;;;;13.07;8.07;;;;;;;17.38;47.42;97371.63;4982545;28;20152;-56
2022/12/27 12:27:58;;;;;;;6.75;4.63;;;;;;;17.18;46.64;97328.53;4982900;28;20047;-55
2022/12/27 12:30:30;;;;;;;4.88;3.70;;;;;;;17.45;46.60;97380.06;4982104;28;20054;-55
2022/12/27 12:33:12;;;;;;;5.50;3.92;;;;;;;17.42;46.48;97372.44;4983427;28;20054;-56
2022/12/27 12:35:56;;;;;;;4.90;4.00;;;;;;;17.48;46.38;97376.44;4986057;28;20124;-63
2022/12/27 12:38:34;;;;;;;5.00;3.75;;;;;;;17.55;46.36;97376.38;4991540;28;20073;-57
2022/12/27 12:41:21;;;;;;;5.82;4.22;;;;;;;17.59;46.52;97379.97;5005171;28;20057;-62
2022/12/27 12:44:16;;;;;;;6.50;4.32;;;;;;;17.54;46.55;97380.41;5005226;28;20081;-56
2022/12/27 12:47:00;;;;;;;6.10;3.75;;;;;;;17.24;46.29;97371.69;5003805;28;20057;-60
2022/12/27 12:49:38;;;;;;;6.35;4.40;;;;;;;17.39;46.55;97395.63;5005031;28;20583;-58
2022/12/27 12:52:45;;;;;;;7.25;4.70;;;;;;;15.35;46.57;97076.56;5005134;28;20100;-56
2022/12/27 12:55:26;;;;;;;7.88;6.10;;;;;;;17.39;47.17;97390.03;5005226;28;20061;-56
2022/12/27 12:58:06;;;;;;;6.75;5.28;;;;;;;17.48;47.61;97387.63;5004349;28;20053;-55
2022/12/27 13:00:50;;;;;;;8.73;6.17;;;;;;;17.45;46.80;97394.06;4995052;28;20132;-63
2022/12/27 13:03:48;;;;;;;10.52;7.13;;;;;;;17.47;46.45;97397.22;4986422;28;20058;-67
2022/12/27 13:06:29;;;;;;;10.13;5.05;;;;;;;17.38;46.67;97391.25;4985350;28;20092;-58
2022/12/27 13:09:05;;;;;;;7.70;5.47;;;;;;;17.30;47.97;97398.88;4985825;28;20092;-58
2022/12/27 13:11:35;;;;;;;13.45;7.95;;;;;;;17.30;48.27;97403.66;4985304;28;20078;-58
2022/12/27 13:14:13;;;;;;;8.20;5.55;;;;;;;17.18;48.22;97390.13;4985539;28;20059;-67
2022/12/27 13:16:48;;;;;;;10.15;6.15;;;;;;;17.26;47.71;97397.28;5004544;28;20046;-68
2022/12/27 13:19:49;;;;;;;11.73;7.18;;;;;;;17.16;47.57;97403.72;5004304;28;20491;-67
2022/12/27 13:22:24;;;;;;;8.68;5.60;;;;;;;17.12;47.26;97402.94;5006013;28;20723;-59
2022/12/27 13:25:17;;;;;;;12.85;7.65;;;;;;;16.59;47.88;97331.13;5005525;28;20086;-67